sensor_id;sensor_type;location;lat;lon;timestamp;P1;durP1;ratioP1;P2;durP2;ratioP2
47539;SDS011;33280;52.152;21.052;2022-08-19T00:01:24;20.37;;;12.33;;
47539;SDS011;33280;52.152;21.052;2022-08-19T00:03:57;16.17;;;12.00;;
47539;SDS011;33280;52.152;21.052;2022-08-19T00:06:25;15.73;;;11.83;;
47539;SDS011;33280;52.152;21.052;2022-08-19T00:08:52;18.70;;;12.50;;
47539;SDS011;33280;52.152;21.052;2022-08-19T00:11:19;16.97;;;12.30;;
47539;SDS011;33280;52.152;21.052;2022-08-19T00:13:51;14.77;;;11.63;;
47539;SDS011;33280;52.152;21.052;2022-08-19T00:16:18;18.07;;;12.17;;
47539;SDS011;33280;52.152;21.052;2022-08-19T00:18:51;17.80;;;12.80;;
47539;SDS011;33280;52.152;21.052;2022-08-19T00:21:19;19.77;;;11.90;;
47539;SDS011;33280;52.152;21.052;2022-08-19T00:23:46;26.00;;;12.57;;
47539;SDS011;33280;52.152;21.052;2022-08-19T00:26:13;15.77;;;11.43;;
47539;SDS011;33280;52.152;21.052;2022-08-19T00:28:40;19.03;;;12.03;;
47539;SDS011;33280;52.152;21.052;2022-08-19T00:31:08;16.20;;;11.70;;
47539;SDS011;33280;52.152;21.052;2022-08-19T00:33:36;17.50;;;11.73;;
47539;SDS011;33280;52.152;21.052;2022-08-19T00:36:04;20.93;;;11.90;;
47539;SDS011;33280;52.152;21.052;2022-08-19T00:38:33;16.67;;;11.53;;
47539;SDS011;33280;52.152;21.052;2022-08-19T00:41:04;18.80;;;11.53;;
47539;SDS011;33280;52.152;21.052;2022-08-19T00:43:32;19.13;;;12.03;;
47539;SDS011;33280;52.152;21.052;2022-08-19T00:45:59;16.40;;;12.07;;
47539;SDS011;33280;52.152;21.052;2022-08-19T00:48:31;18.00;;;11.73;;
47539;SDS011;33280;52.152;21.052;2022-08-19T00:50:59;18.57;;;12.03;;
47539;SDS011;33280;52.152;21.052;2022-08-19T00:53:28;17.57;;;11.73;;
47539;SDS011;33280;52.152;21.052;2022-08-19T00:55:58;16.93;;;11.97;;
47539;SDS011;33280;52.152;21.052;2022-08-19T00:58:29;18.87;;;11.67;;
47539;SDS011;33280;52.152;21.052;2022-08-19T01:00:59;15.87;;;11.50;;
47539;SDS011;33280;52.152;21.052;2022-08-19T01:03:27;20.57;;;12.57;;
47539;SDS011;33280;52.152;21.052;2022-08-19T01:06:14;19.27;;;11.83;;
47539;SDS011;33280;52.152;21.052;2022-08-19T01:08:45;21.53;;;12.23;;
47539;SDS011;33280;52.152;21.052;2022-08-19T01:11:15;18.97;;;12.80;;
47539;SDS011;33280;52.152;21.052;2022-08-19T01:13:43;18.90;;;12.50;;
47539;SDS011;33280;52.152;21.052;2022-08-19T01:16:16;21.73;;;13.03;;
47539;SDS011;33280;52.152;21.052;2022-08-19T01:18:44;19.17;;;12.23;;
47539;SDS011;33280;52.152;21.052;2022-08-19T01:21:16;20.67;;;12.80;;
47539;SDS011;33280;52.152;21.052;2022-08-19T01:23:58;18.60;;;12.90;;
47539;SDS011;33280;52.152;21.052;2022-08-19T01:26:26;19.93;;;12.87;;
47539;SDS011;33280;52.152;21.052;2022-08-19T01:28:57;21.37;;;13.50;;
47539;SDS011;33280;52.152;21.052;2022-08-19T01:31:27;18.70;;;12.50;;
47539;SDS011;33280;52.152;21.052;2022-08-19T01:33:58;20.53;;;12.87;;
47539;SDS011;33280;52.152;21.052;2022-08-19T01:36:29;21.47;;;13.40;;
47539;SDS011;33280;52.152;21.052;2022-08-19T01:39:00;21.83;;;13.40;;
47539;SDS011;33280;52.152;21.052;2022-08-19T01:41:29;21.30;;;13.33;;
47539;SDS011;33280;52.152;21.052;2022-08-19T01:43:56;21.33;;;13.53;;
47539;SDS011;33280;52.152;21.052;2022-08-19T01:46:43;25.23;;;14.10;;
47539;SDS011;33280;52.152;21.052;2022-08-19T01:49:10;22.77;;;13.90;;
47539;SDS011;33280;52.152;21.052;2022-08-19T01:51:37;16.70;;;13.20;;
47539;SDS011;33280;52.152;21.052;2022-08-19T01:54:06;20.07;;;13.33;;
47539;SDS011;33280;52.152;21.052;2022-08-19T01:56:37;17.63;;;12.80;;
47539;SDS011;33280;52.152;21.052;2022-08-19T01:59:07;23.00;;;13.77;;
47539;SDS011;33280;52.152;21.052;2022-08-19T02:01:38;21.00;;;13.37;;
47539;SDS011;33280;52.152;21.052;2022-08-19T02:04:05;18.50;;;13.77;;
47539;SDS011;33280;52.152;21.052;2022-08-19T02:06:32;17.70;;;12.90;;
47539;SDS011;33280;52.152;21.052;2022-08-19T02:08:59;21.73;;;13.77;;
47539;SDS011;33280;52.152;21.052;2022-08-19T02:11:28;18.47;;;13.07;;
47539;SDS011;33280;52.152;21.052;2022-08-19T02:14:00;19.40;;;13.40;;
47539;SDS011;33280;52.152;21.052;2022-08-19T02:16:29;18.43;;;13.07;;
47539;SDS011;33280;52.152;21.052;2022-08-19T02:19:06;18.53;;;13.70;;
47539;SDS011;33280;52.152;21.052;2022-08-19T02:21:36;19.60;;;13.50;;
47539;SDS011;33280;52.152;21.052;2022-08-19T02:24:09;22.37;;;13.93;;
47539;SDS011;33280;52.152;21.052;2022-08-19T02:26:36;22.50;;;14.30;;
47539;SDS011;33280;52.152;21.052;2022-08-19T02:29:03;19.37;;;13.33;;
47539;SDS011;33280;52.152;21.052;2022-08-19T02:31:30;19.23;;;13.40;;
47539;SDS011;33280;52.152;21.052;2022-08-19T02:33:57;19.30;;;13.93;;
47539;SDS011;33280;52.152;21.052;2022-08-19T02:36:24;20.20;;;13.50;;
47539;SDS011;33280;52.152;21.052;2022-08-19T02:38:52;19.60;;;13.00;;
47539;SDS011;33280;52.152;21.052;2022-08-19T02:41:25;19.77;;;13.57;;
47539;SDS011;33280;52.152;21.052;2022-08-19T02:43:54;18.63;;;13.33;;
47539;SDS011;33280;52.152;21.052;2022-08-19T02:46:44;17.53;;;12.90;;
47539;SDS011;33280;52.152;21.052;2022-08-19T02:49:12;16.93;;;13.27;;
47539;SDS011;33280;52.152;21.052;2022-08-19T02:51:42;21.13;;;13.97;;
47539;SDS011;33280;52.152;21.052;2022-08-19T02:54:11;17.83;;;13.77;;
47539;SDS011;33280;52.152;21.052;2022-08-19T02:56:39;18.10;;;13.77;;
47539;SDS011;33280;52.152;21.052;2022-08-19T02:59:15;22.77;;;14.27;;
47539;SDS011;33280;52.152;21.052;2022-08-19T03:01:48;20.40;;;13.77;;
47539;SDS011;33280;52.152;21.052;2022-08-19T03:04:15;18.90;;;13.13;;
47539;SDS011;33280;52.152;21.052;2022-08-19T03:06:44;19.43;;;13.30;;
47539;SDS011;33280;52.152;21.052;2022-08-19T03:09:12;22.70;;;13.20;;
47539;SDS011;33280;52.152;21.052;2022-08-19T03:11:40;19.10;;;13.10;;
47539;SDS011;33280;52.152;21.052;2022-08-19T03:14:07;18.30;;;13.60;;
47539;SDS011;33280;52.152;21.052;2022-08-19T03:16:43;20.10;;;13.73;;
47539;SDS011;33280;52.152;21.052;2022-08-19T03:19:12;22.27;;;13.60;;
47539;SDS011;33280;52.152;21.052;2022-08-19T03:21:40;19.37;;;13.77;;
47539;SDS011;33280;52.152;21.052;2022-08-19T03:24:16;21.97;;;13.37;;
47539;SDS011;33280;52.152;21.052;2022-08-19T03:26:50;23.50;;;13.77;;
47539;SDS011;33280;52.152;21.052;2022-08-19T03:29:27;18.90;;;13.70;;
47539;SDS011;33280;52.152;21.052;2022-08-19T03:32:09;19.93;;;14.10;;
47539;SDS011;33280;52.152;21.052;2022-08-19T03:35:01;20.37;;;13.57;;
47539;SDS011;33280;52.152;21.052;2022-08-19T03:37:28;19.07;;;13.00;;
47539;SDS011;33280;52.152;21.052;2022-08-19T03:39:55;22.47;;;14.23;;
47539;SDS011;33280;52.152;21.052;2022-08-19T03:42:22;20.07;;;13.50;;
47539;SDS011;33280;52.152;21.052;2022-08-19T03:45:09;20.93;;;13.87;;
47539;SDS011;33280;52.152;21.052;2022-08-19T03:47:36;20.10;;;13.70;;
47539;SDS011;33280;52.152;21.052;2022-08-19T03:50:04;27.00;;;14.87;;
47539;SDS011;33280;52.152;21.052;2022-08-19T03:52:31;19.47;;;13.53;;
47539;SDS011;33280;52.152;21.052;2022-08-19T03:54:58;22.50;;;14.37;;
47539;SDS011;33280;52.152;21.052;2022-08-19T03:57:25;18.70;;;14.33;;
47539;SDS011;33280;52.152;21.052;2022-08-19T03:59:57;22.77;;;13.90;;
47539;SDS011;33280;52.152;21.052;2022-08-19T04:02:39;21.27;;;13.87;;
47539;SDS011;33280;52.152;21.052;2022-08-19T04:05:26;25.70;;;14.63;;
47539;SDS011;33280;52.152;21.052;2022-08-19T04:07:56;20.40;;;14.07;;
47539;SDS011;33280;52.152;21.052;2022-08-19T04:10:28;18.77;;;14.07;;
47539;SDS011;33280;52.152;21.052;2022-08-19T04:12:55;22.30;;;14.17;;
47539;SDS011;33280;52.152;21.052;2022-08-19T04:15:22;21.13;;;13.97;;
47539;SDS011;33280;52.152;21.052;2022-08-19T04:17:49;19.67;;;13.80;;
47539;SDS011;33280;52.152;21.052;2022-08-19T04:20:18;21.83;;;13.97;;
47539;SDS011;33280;52.152;21.052;2022-08-19T04:22:45;21.87;;;14.23;;
47539;SDS011;33280;52.152;21.052;2022-08-19T04:25:12;22.97;;;14.43;;
47539;SDS011;33280;52.152;21.052;2022-08-19T04:27:42;22.03;;;14.53;;
47539;SDS011;33280;52.152;21.052;2022-08-19T04:30:13;22.37;;;14.30;;
47539;SDS011;33280;52.152;21.052;2022-08-19T04:32:40;21.63;;;14.03;;
47539;SDS011;33280;52.152;21.052;2022-08-19T04:35:09;21.20;;;14.63;;
47539;SDS011;33280;52.152;21.052;2022-08-19T04:37:44;20.80;;;13.50;;
47539;SDS011;33280;52.152;21.052;2022-08-19T04:40:11;19.97;;;14.63;;
47539;SDS011;33280;52.152;21.052;2022-08-19T04:42:56;25.83;;;15.63;;
47539;SDS011;33280;52.152;21.052;2022-08-19T04:45:23;23.20;;;14.73;;
47539;SDS011;33280;52.152;21.052;2022-08-19T04:47:54;28.30;;;15.53;;
47539;SDS011;33280;52.152;21.052;2022-08-19T04:50:27;19.80;;;13.57;;
47539;SDS011;33280;52.152;21.052;2022-08-19T04:52:55;19.93;;;14.10;;
47539;SDS011;33280;52.152;21.052;2022-08-19T04:55:22;20.83;;;13.97;;
47539;SDS011;33280;52.152;21.052;2022-08-19T04:57:51;21.33;;;14.40;;
47539;SDS011;33280;52.152;21.052;2022-08-19T05:00:19;21.40;;;14.17;;
47539;SDS011;33280;52.152;21.052;2022-08-19T05:02:46;21.00;;;14.33;;
47539;SDS011;33280;52.152;21.052;2022-08-19T05:05:13;22.37;;;14.03;;
47539;SDS011;33280;52.152;21.052;2022-08-19T05:07:40;20.07;;;12.97;;
47539;SDS011;33280;52.152;21.052;2022-08-19T05:10:07;21.93;;;13.50;;
47539;SDS011;33280;52.152;21.052;2022-08-19T05:12:34;26.00;;;13.77;;
47539;SDS011;33280;52.152;21.052;2022-08-19T05:15:05;22.70;;;13.43;;
47539;SDS011;33280;52.152;21.052;2022-08-19T05:17:36;20.03;;;13.60;;
47539;SDS011;33280;52.152;21.052;2022-08-19T05:20:06;22.27;;;13.57;;
47539;SDS011;33280;52.152;21.052;2022-08-19T05:22:52;21.53;;;14.20;;
47539;SDS011;33280;52.152;21.052;2022-08-19T05:25:20;20.03;;;13.27;;
47539;SDS011;33280;52.152;21.052;2022-08-19T05:27:48;25.60;;;13.87;;
47539;SDS011;33280;52.152;21.052;2022-08-19T05:30:15;18.00;;;13.43;;
47539;SDS011;33280;52.152;21.052;2022-08-19T05:32:43;16.53;;;12.87;;
47539;SDS011;33280;52.152;21.052;2022-08-19T05:35:10;17.40;;;13.40;;
47539;SDS011;33280;52.152;21.052;2022-08-19T05:37:38;19.50;;;12.93;;
47539;SDS011;33280;52.152;21.052;2022-08-19T05:40:08;18.30;;;13.25;;
47539;SDS011;33280;52.152;21.052;2022-08-19T05:42:36;19.07;;;13.53;;
47539;SDS011;33280;52.152;21.052;2022-08-19T05:45:04;24.07;;;13.57;;
47539;SDS011;33280;52.152;21.052;2022-08-19T05:47:35;20.50;;;14.03;;
47539;SDS011;33280;52.152;21.052;2022-08-19T05:50:07;21.23;;;14.17;;
47539;SDS011;33280;52.152;21.052;2022-08-19T05:52:34;20.93;;;13.50;;
47539;SDS011;33280;52.152;21.052;2022-08-19T05:55:08;23.60;;;13.43;;
47539;SDS011;33280;52.152;21.052;2022-08-19T05:57:36;17.30;;;12.47;;
47539;SDS011;33280;52.152;21.052;2022-08-19T06:00:04;19.60;;;13.23;;
47539;SDS011;33280;52.152;21.052;2022-08-19T06:02:37;22.13;;;14.13;;
47539;SDS011;33280;52.152;21.052;2022-08-19T06:05:04;24.15;;;14.07;;
47539;SDS011;33280;52.152;21.052;2022-08-19T06:07:40;17.67;;;13.50;;
47539;SDS011;33280;52.152;21.052;2022-08-19T06:10:08;21.88;;;13.95;;
47539;SDS011;33280;52.152;21.052;2022-08-19T06:12:37;19.87;;;13.53;;
47539;SDS011;33280;52.152;21.052;2022-08-19T06:15:10;18.90;;;13.37;;
47539;SDS011;33280;52.152;21.052;2022-08-19T06:17:40;20.27;;;14.47;;
47539;SDS011;33280;52.152;21.052;2022-08-19T06:20:11;19.95;;;13.40;;
47539;SDS011;33280;52.152;21.052;2022-08-19T06:22:41;18.80;;;14.00;;
47539;SDS011;33280;52.152;21.052;2022-08-19T06:25:10;20.67;;;13.97;;
47539;SDS011;33280;52.152;21.052;2022-08-19T06:27:38;21.70;;;13.90;;
47539;SDS011;33280;52.152;21.052;2022-08-19T06:30:29;18.27;;;14.05;;
47539;SDS011;33280;52.152;21.052;2022-08-19T06:32:57;21.65;;;14.32;;
47539;SDS011;33280;52.152;21.052;2022-08-19T06:35:24;23.70;;;14.60;;
47539;SDS011;33280;52.152;21.052;2022-08-19T06:37:51;23.63;;;15.02;;
47539;SDS011;33280;52.152;21.052;2022-08-19T06:40:18;26.83;;;15.50;;
47539;SDS011;33280;52.152;21.052;2022-08-19T06:42:45;21.75;;;14.38;;
47539;SDS011;33280;52.152;21.052;2022-08-19T06:45:20;17.90;;;13.87;;
47539;SDS011;33280;52.152;21.052;2022-08-19T06:47:51;17.63;;;14.25;;
47539;SDS011;33280;52.152;21.052;2022-08-19T06:50:25;19.75;;;13.70;;
47539;SDS011;33280;52.152;21.052;2022-08-19T06:52:54;22.63;;;13.70;;
47539;SDS011;33280;52.152;21.052;2022-08-19T06:55:21;19.63;;;14.07;;
47539;SDS011;33280;52.152;21.052;2022-08-19T06:57:49;19.92;;;14.07;;
47539;SDS011;33280;52.152;21.052;2022-08-19T07:00:17;20.80;;;13.77;;
47539;SDS011;33280;52.152;21.052;2022-08-19T07:02:44;19.75;;;13.73;;
47539;SDS011;33280;52.152;21.052;2022-08-19T07:05:20;18.80;;;13.15;;
47539;SDS011;33280;52.152;21.052;2022-08-19T07:07:48;21.95;;;13.85;;
47539;SDS011;33280;52.152;21.052;2022-08-19T07:10:16;18.35;;;12.82;;
47539;SDS011;33280;52.152;21.052;2022-08-19T07:12:43;17.38;;;12.32;;
47539;SDS011;33280;52.152;21.052;2022-08-19T07:15:10;18.10;;;12.93;;
47539;SDS011;33280;52.152;21.052;2022-08-19T07:17:39;28.00;;;14.60;;
47539;SDS011;33280;52.152;21.052;2022-08-19T07:20:07;27.65;;;13.80;;
47539;SDS011;33280;52.152;21.052;2022-08-19T07:22:38;17.35;;;12.85;;
47539;SDS011;33280;52.152;21.052;2022-08-19T07:25:07;19.70;;;13.15;;
47539;SDS011;33280;52.152;21.052;2022-08-19T07:27:35;16.73;;;13.10;;
47539;SDS011;33280;52.152;21.052;2022-08-19T07:30:06;21.35;;;12.80;;
47539;SDS011;33280;52.152;21.052;2022-08-19T07:32:37;19.42;;;12.75;;
47539;SDS011;33280;52.152;21.052;2022-08-19T07:35:05;17.67;;;12.70;;
47539;SDS011;33280;52.152;21.052;2022-08-19T07:37:33;19.23;;;12.40;;
47539;SDS011;33280;52.152;21.052;2022-08-19T07:40:04;14.18;;;11.73;;
47539;SDS011;33280;52.152;21.052;2022-08-19T07:42:32;17.83;;;11.95;;
47539;SDS011;33280;52.152;21.052;2022-08-19T07:44:59;17.75;;;11.60;;
47539;SDS011;33280;52.152;21.052;2022-08-19T07:47:28;16.58;;;11.50;;
47539;SDS011;33280;52.152;21.052;2022-08-19T07:50:16;19.15;;;12.13;;
47539;SDS011;33280;52.152;21.052;2022-08-19T07:52:52;19.67;;;11.73;;
47539;SDS011;33280;52.152;21.052;2022-08-19T07:55:22;16.73;;;11.82;;
47539;SDS011;33280;52.152;21.052;2022-08-19T07:58:08;20.98;;;12.52;;
47539;SDS011;33280;52.152;21.052;2022-08-19T08:00:36;18.88;;;11.38;;
47539;SDS011;33280;52.152;21.052;2022-08-19T08:03:04;14.45;;;11.45;;
47539;SDS011;33280;52.152;21.052;2022-08-19T08:05:31;14.23;;;11.40;;
47539;SDS011;33280;52.152;21.052;2022-08-19T08:08:16;18.73;;;11.98;;
47539;SDS011;33280;52.152;21.052;2022-08-19T08:11:01;18.15;;;11.75;;
47539;SDS011;33280;52.152;21.052;2022-08-19T08:13:33;18.88;;;11.40;;
47539;SDS011;33280;52.152;21.052;2022-08-19T08:16:04;14.70;;;11.35;;
47539;SDS011;33280;52.152;21.052;2022-08-19T08:18:39;15.38;;;11.05;;
47539;SDS011;33280;52.152;21.052;2022-08-19T08:21:16;19.00;;;11.40;;
47539;SDS011;33280;52.152;21.052;2022-08-19T08:23:43;16.75;;;11.52;;
47539;SDS011;33280;52.152;21.052;2022-08-19T08:26:10;18.35;;;10.82;;
47539;SDS011;33280;52.152;21.052;2022-08-19T08:28:38;21.15;;;12.13;;
47539;SDS011;33280;52.152;21.052;2022-08-19T08:31:06;19.40;;;11.48;;
47539;SDS011;33280;52.152;21.052;2022-08-19T08:33:35;15.20;;;10.57;;
47539;SDS011;33280;52.152;21.052;2022-08-19T08:36:04;15.68;;;11.38;;
47539;SDS011;33280;52.152;21.052;2022-08-19T08:38:32;13.20;;;10.60;;
47539;SDS011;33280;52.152;21.052;2022-08-19T08:41:07;15.38;;;10.55;;
47539;SDS011;33280;52.152;21.052;2022-08-19T08:43:57;12.88;;;10.32;;
47539;SDS011;33280;52.152;21.052;2022-08-19T08:46:35;17.23;;;11.32;;
47539;SDS011;33280;52.152;21.052;2022-08-19T08:52:07;16.20;;;11.00;;
47539;SDS011;33280;52.152;21.052;2022-08-19T08:54:41;14.60;;;9.90;;
47539;SDS011;33280;52.152;21.052;2022-08-19T08:57:27;13.52;;;9.60;;
47539;SDS011;33280;52.152;21.052;2022-08-19T09:00:10;15.02;;;9.30;;
47539;SDS011;33280;52.152;21.052;2022-08-19T09:02:43;11.23;;;8.73;;
47539;SDS011;33280;52.152;21.052;2022-08-19T09:05:16;12.38;;;8.95;;
47539;SDS011;33280;52.152;21.052;2022-08-19T09:08:02;15.02;;;8.93;;
47539;SDS011;33280;52.152;21.052;2022-08-19T09:13:36;12.52;;;9.10;;
47539;SDS011;33280;52.152;21.052;2022-08-19T09:16:30;14.40;;;8.55;;
47539;SDS011;33280;52.152;21.052;2022-08-19T09:18:58;13.50;;;8.25;;
47539;SDS011;33280;52.152;21.052;2022-08-19T09:21:35;14.23;;;8.50;;
47539;SDS011;33280;52.152;21.052;2022-08-19T09:24:05;14.50;;;8.65;;
47539;SDS011;33280;52.152;21.052;2022-08-19T09:26:32;10.93;;;7.93;;
47539;SDS011;33280;52.152;21.052;2022-08-19T09:29:17;15.30;;;8.10;;
47539;SDS011;33280;52.152;21.052;2022-08-19T09:31:48;11.07;;;8.15;;
47539;SDS011;33280;52.152;21.052;2022-08-19T09:34:16;12.65;;;8.38;;
47539;SDS011;33280;52.152;21.052;2022-08-19T09:36:47;11.93;;;8.10;;
47539;SDS011;33280;52.152;21.052;2022-08-19T09:39:20;15.35;;;8.70;;
47539;SDS011;33280;52.152;21.052;2022-08-19T09:41:47;12.95;;;8.50;;
47539;SDS011;33280;52.152;21.052;2022-08-19T09:44:16;10.65;;;8.32;;
47539;SDS011;33280;52.152;21.052;2022-08-19T09:46:44;11.45;;;8.38;;
47539;SDS011;33280;52.152;21.052;2022-08-19T09:49:13;14.10;;;8.30;;
47539;SDS011;33280;52.152;21.052;2022-08-19T09:51:43;10.55;;;7.85;;
47539;SDS011;33280;52.152;21.052;2022-08-19T09:54:16;10.13;;;7.55;;
47539;SDS011;33280;52.152;21.052;2022-08-19T09:56:50;15.43;;;7.68;;
47539;SDS011;33280;52.152;21.052;2022-08-19T09:59:17;11.68;;;7.75;;
47539;SDS011;33280;52.152;21.052;2022-08-19T10:01:44;10.95;;;7.35;;
47539;SDS011;33280;52.152;21.052;2022-08-19T10:04:11;13.50;;;7.68;;
47539;SDS011;33280;52.152;21.052;2022-08-19T10:06:46;12.13;;;7.53;;
47539;SDS011;33280;52.152;21.052;2022-08-19T10:09:19;10.90;;;7.32;;
47539;SDS011;33280;52.152;21.052;2022-08-19T10:12:00;10.18;;;7.28;;
47539;SDS011;33280;52.152;21.052;2022-08-19T10:14:36;11.27;;;7.90;;
47539;SDS011;33280;52.152;21.052;2022-08-19T10:17:04;18.08;;;7.78;;
47539;SDS011;33280;52.152;21.052;2022-08-19T10:19:46;12.00;;;7.47;;
47539;SDS011;33280;52.152;21.052;2022-08-19T10:22:23;12.65;;;7.80;;
47539;SDS011;33280;52.152;21.052;2022-08-19T10:24:51;13.25;;;7.53;;
47539;SDS011;33280;52.152;21.052;2022-08-19T10:27:18;10.88;;;7.28;;
47539;SDS011;33280;52.152;21.052;2022-08-19T10:29:45;11.40;;;7.05;;
47539;SDS011;33280;52.152;21.052;2022-08-19T10:32:13;12.13;;;7.60;;
47539;SDS011;33280;52.152;21.052;2022-08-19T10:34:42;10.80;;;7.60;;
47539;SDS011;33280;52.152;21.052;2022-08-19T10:37:14;14.07;;;7.88;;
47539;SDS011;33280;52.152;21.052;2022-08-19T10:39:49;17.52;;;7.53;;
47539;SDS011;33280;52.152;21.052;2022-08-19T10:42:17;12.30;;;7.28;;
47539;SDS011;33280;52.152;21.052;2022-08-19T10:44:45;10.88;;;7.30;;
47539;SDS011;33280;52.152;21.052;2022-08-19T10:47:13;11.15;;;7.82;;
47539;SDS011;33280;52.152;21.052;2022-08-19T10:49:50;10.35;;;7.38;;
47539;SDS011;33280;52.152;21.052;2022-08-19T10:52:38;12.18;;;7.10;;
47539;SDS011;33280;52.152;21.052;2022-08-19T10:55:16;13.57;;;7.70;;
47539;SDS011;33280;52.152;21.052;2022-08-19T10:58:06;10.85;;;7.85;;
47539;SDS011;33280;52.152;21.052;2022-08-19T11:00:40;11.68;;;8.18;;
47539;SDS011;33280;52.152;21.052;2022-08-19T11:03:09;12.32;;;7.78;;
47539;SDS011;33280;52.152;21.052;2022-08-19T11:05:36;11.90;;;7.50;;
47539;SDS011;33280;52.152;21.052;2022-08-19T11:08:06;10.48;;;8.05;;
47539;SDS011;33280;52.152;21.052;2022-08-19T11:10:48;12.13;;;7.93;;
47539;SDS011;33280;52.152;21.052;2022-08-19T11:13:16;12.38;;;7.78;;
47539;SDS011;33280;52.152;21.052;2022-08-19T11:15:43;13.18;;;7.78;;
47539;SDS011;33280;52.152;21.052;2022-08-19T11:18:14;12.25;;;7.80;;
47539;SDS011;33280;52.152;21.052;2022-08-19T11:20:40;9.98;;;7.78;;
47539;SDS011;33280;52.152;21.052;2022-08-19T11:23:07;14.40;;;7.70;;
47539;SDS011;33280;52.152;21.052;2022-08-19T11:25:37;9.48;;;7.57;;
47539;SDS011;33280;52.152;21.052;2022-08-19T11:28:05;8.25;;;7.38;;
47539;SDS011;33280;52.152;21.052;2022-08-19T11:30:32;10.73;;;6.90;;
47539;SDS011;33280;52.152;21.052;2022-08-19T11:33:00;11.23;;;6.72;;
47539;SDS011;33280;52.152;21.052;2022-08-19T11:35:27;9.95;;;6.78;;
47539;SDS011;33280;52.152;21.052;2022-08-19T11:37:54;12.18;;;7.57;;
47539;SDS011;33280;52.152;21.052;2022-08-19T11:40:22;13.95;;;7.63;;
47539;SDS011;33280;52.152;21.052;2022-08-19T11:42:49;11.45;;;6.90;;
47539;SDS011;33280;52.152;21.052;2022-08-19T11:45:23;11.77;;;7.05;;
47539;SDS011;33280;52.152;21.052;2022-08-19T11:47:51;11.40;;;7.47;;
47539;SDS011;33280;52.152;21.052;2022-08-19T11:50:18;12.57;;;7.00;;
47539;SDS011;33280;52.152;21.052;2022-08-19T11:52:46;11.15;;;6.90;;
47539;SDS011;33280;52.152;21.052;2022-08-19T11:55:13;10.63;;;6.53;;
47539;SDS011;33280;52.152;21.052;2022-08-19T11:57:40;13.10;;;6.60;;
47539;SDS011;33280;52.152;21.052;2022-08-19T12:00:09;8.70;;;6.22;;
47539;SDS011;33280;52.152;21.052;2022-08-19T12:02:39;10.95;;;7.30;;
47539;SDS011;33280;52.152;21.052;2022-08-19T12:05:06;10.65;;;7.00;;
47539;SDS011;33280;52.152;21.052;2022-08-19T12:07:38;11.90;;;6.70;;
47539;SDS011;33280;52.152;21.052;2022-08-19T12:10:07;8.77;;;6.30;;
47539;SDS011;33280;52.152;21.052;2022-08-19T12:12:36;10.52;;;6.85;;
47539;SDS011;33280;52.152;21.052;2022-08-19T12:15:09;9.23;;;6.78;;
47539;SDS011;33280;52.152;21.052;2022-08-19T12:17:37;12.65;;;6.70;;
47539;SDS011;33280;52.152;21.052;2022-08-19T12:20:04;8.27;;;6.40;;
47539;SDS011;33280;52.152;21.052;2022-08-19T12:22:33;11.57;;;6.38;;
47539;SDS011;33280;52.152;21.052;2022-08-19T12:25:01;8.95;;;6.40;;
47539;SDS011;33280;52.152;21.052;2022-08-19T12:27:28;10.63;;;6.38;;
47539;SDS011;33280;52.152;21.052;2022-08-19T12:30:07;10.68;;;6.47;;
47539;SDS011;33280;52.152;21.052;2022-08-19T12:32:37;9.35;;;6.45;;
47539;SDS011;33280;52.152;21.052;2022-08-19T12:35:06;12.82;;;6.55;;
47539;SDS011;33280;52.152;21.052;2022-08-19T12:37:35;11.45;;;6.40;;
47539;SDS011;33280;52.152;21.052;2022-08-19T12:40:02;10.80;;;6.30;;
47539;SDS011;33280;52.152;21.052;2022-08-19T12:42:30;12.25;;;6.70;;
47539;SDS011;33280;52.152;21.052;2022-08-19T12:45:05;10.70;;;6.57;;
47539;SDS011;33280;52.152;21.052;2022-08-19T12:47:37;12.60;;;6.43;;
47539;SDS011;33280;52.152;21.052;2022-08-19T12:50:09;10.57;;;6.43;;
47539;SDS011;33280;52.152;21.052;2022-08-19T12:52:39;10.20;;;6.15;;
47539;SDS011;33280;52.152;21.052;2022-08-19T12:55:11;9.95;;;6.20;;
47539;SDS011;33280;52.152;21.052;2022-08-19T12:57:38;8.32;;;6.05;;
47539;SDS011;33280;52.152;21.052;2022-08-19T13:00:14;11.35;;;6.13;;
47539;SDS011;33280;52.152;21.052;2022-08-19T13:02:43;7.70;;;6.10;;
47539;SDS011;33280;52.152;21.052;2022-08-19T13:05:16;9.70;;;6.45;;
47539;SDS011;33280;52.152;21.052;2022-08-19T13:07:50;9.65;;;6.13;;
47539;SDS011;33280;52.152;21.052;2022-08-19T13:10:21;13.43;;;6.80;;
47539;SDS011;33280;52.152;21.052;2022-08-19T13:12:49;10.73;;;6.38;;
47539;SDS011;33280;52.152;21.052;2022-08-19T13:15:18;8.40;;;6.40;;
47539;SDS011;33280;52.152;21.052;2022-08-19T13:17:50;8.57;;;6.18;;
47539;SDS011;33280;52.152;21.052;2022-08-19T13:20:19;12.05;;;6.22;;
47539;SDS011;33280;52.152;21.052;2022-08-19T13:22:47;13.73;;;6.88;;
47539;SDS011;33280;52.152;21.052;2022-08-19T13:25:15;10.10;;;6.35;;
47539;SDS011;33280;52.152;21.052;2022-08-19T13:27:45;10.18;;;6.38;;
47539;SDS011;33280;52.152;21.052;2022-08-19T13:30:13;9.18;;;6.60;;
47539;SDS011;33280;52.152;21.052;2022-08-19T13:33:00;8.95;;;6.30;;
47539;SDS011;33280;52.152;21.052;2022-08-19T13:35:44;13.05;;;6.75;;
47539;SDS011;33280;52.152;21.052;2022-08-19T13:38:13;9.45;;;6.28;;
47539;SDS011;33280;52.152;21.052;2022-08-19T13:40:42;8.15;;;6.20;;
47539;SDS011;33280;52.152;21.052;2022-08-19T13:43:10;10.73;;;5.90;;
47539;SDS011;33280;52.152;21.052;2022-08-19T13:45:49;11.60;;;6.10;;
47539;SDS011;33280;52.152;21.052;2022-08-19T13:48:22;10.23;;;5.70;;
47539;SDS011;33280;52.152;21.052;2022-08-19T13:50:52;10.98;;;5.90;;
47539;SDS011;33280;52.152;21.052;2022-08-19T13:53:26;10.68;;;5.82;;
47539;SDS011;33280;52.152;21.052;2022-08-19T13:55:53;9.70;;;5.40;;
47539;SDS011;33280;52.152;21.052;2022-08-19T13:58:20;8.38;;;5.80;;
47539;SDS011;33280;52.152;21.052;2022-08-19T14:00:48;10.95;;;5.50;;
47539;SDS011;33280;52.152;21.052;2022-08-19T14:03:15;8.32;;;6.05;;
47539;SDS011;33280;52.152;21.052;2022-08-19T14:05:51;8.75;;;5.30;;
47539;SDS011;33280;52.152;21.052;2022-08-19T14:08:18;9.27;;;5.57;;
47539;SDS011;33280;52.152;21.052;2022-08-19T14:10:45;9.50;;;5.70;;
47539;SDS011;33280;52.152;21.052;2022-08-19T14:13:13;10.38;;;5.82;;
47539;SDS011;33280;52.152;21.052;2022-08-19T14:15:41;9.43;;;5.57;;
47539;SDS011;33280;52.152;21.052;2022-08-19T14:18:09;8.85;;;5.63;;
47539;SDS011;33280;52.152;21.052;2022-08-19T14:20:36;10.70;;;5.45;;
47539;SDS011;33280;52.152;21.052;2022-08-19T14:23:03;18.80;;;5.97;;
47539;SDS011;33280;52.152;21.052;2022-08-19T14:25:32;9.13;;;5.43;;
47539;SDS011;33280;52.152;21.052;2022-08-19T14:28:00;12.75;;;5.20;;
47539;SDS011;33280;52.152;21.052;2022-08-19T14:30:29;9.73;;;5.03;;
47539;SDS011;33280;52.152;21.052;2022-08-19T14:32:58;7.78;;;5.20;;
47539;SDS011;33280;52.152;21.052;2022-08-19T14:35:27;8.30;;;5.10;;
47539;SDS011;33280;52.152;21.052;2022-08-19T14:37:55;14.68;;;5.10;;
47539;SDS011;33280;52.152;21.052;2022-08-19T14:40:25;6.57;;;4.88;;
47539;SDS011;33280;52.152;21.052;2022-08-19T14:42:54;8.80;;;5.15;;